Arlington, WA

10:46 PM PDT on June 29, 2015 (GMT -0700)
Arlington Municipal | | Change Station
CLOSE
Current Station
Airport
Location: Arlington,
Elevation: 138 ft
Nearby Weather Stations

Elev 138 ft 48.16 °N, 122.16 °W | Updated 11 minutes ago

Partly Cloudy
Partly Cloudy
66 °F
Feels Like 66 °F
N
6
Wind Variable Wind from NW

Today
High -- | Low -- °F
--% Chance of Precip.
Yesterday
High -- | Low -- °F
Precip. -- in
5:10 AM 9:12 PM
Waxing Gibbous, 96% visible
Pressure 30.04 in
Visibility 10.0 miles
Clouds Clear
Dew Point 54 °F
Humidity 64%
Rainfall 0.08 in
Snow Depth Not available.
UV 0 out of 12
Pollen 3.00 out of 12
Air Quality Not available.
Flu Activity Sporadic
METAR KAWO 300535Z AUTO 32005KT 10SM CLR 19/12 A3004 RMK AO1

More Conditions Fewer Conditions

Pressure 30.04 in
Visibility 10.0 miles
Clouds Clear
Dew Point 54 °F
Humidity 64%
Rainfall 0.08 in
Snow Depth Not available.
UV 0 out of 12
Pollen 3.00 out of 12
Air Quality Not available.
Flu Activity Sporadic
METAR KAWO 300535Z AUTO 32005KT 10SM CLR 19/12 A3004 RMK AO1

More Conditions Fewer Conditions

10-Day Weather Forecast

×

Almanac

Astronomy

Jun. 29, 2015 Rise Set
Actual Time
Civil Twilight
Nautical Twilight
Astronomical Twilight
Moon
Length of Visible Light
Length of Day
Tomorrow will be .
, % of the Moon is Illuminated

Today's Extremes

State Highs State Lows

Community

WunderPhotos

Upload Photos

1,833,970 photos uploaded!

WunderBlogs® & News

Nearby

Air Quality

  Air Quality AQ Index Pollutant
Not available.

Snow Depth

Station Depth Elevation

Earthquake Activity

City Distance Mag. Time & Date
Minimum magnitude displayed is 2.5.

Coastal Water Temperatures

Place Temperature

Stations

Nearby Weather Stations

Station Location Temp. Windchill Dew Point Humidity Wind Precip. Elev Updated Type